createdAt,value
2019-01-26T00:02:13.253Z,-1.78
2019-01-26T00:04:46.674Z,-1.81
2019-01-26T00:07:20.362Z,-1.84
2019-01-26T00:09:53.768Z,-1.75
2019-01-26T00:12:26.945Z,-1.71
2019-01-26T00:15:00.494Z,-1.69
2019-01-26T00:17:38.790Z,-1.63
2019-01-26T00:20:12.388Z,-1.55
2019-01-26T00:22:46.873Z,-1.53
2019-01-26T00:25:20.051Z,-1.55
2019-01-26T00:27:54.472Z,-1.79
2019-01-26T00:30:28.116Z,-1.70
2019-01-26T00:33:01.336Z,-1.71
2019-01-26T00:35:34.469Z,-1.71
2019-01-26T00:38:08.668Z,-1.75
2019-01-26T00:40:42.944Z,-1.69
2019-01-26T00:43:16.391Z,-1.66
2019-01-26T00:45:49.647Z,-1.76
2019-01-26T00:48:22.771Z,-1.76
2019-01-26T00:50:56.878Z,-1.84
2019-01-26T00:53:30.199Z,-1.71
2019-01-26T00:56:02.313Z,-1.68
2019-01-26T00:58:36.070Z,-1.65
2019-01-26T01:01:09.515Z,-1.81
2019-01-26T01:03:42.903Z,-1.72
2019-01-26T01:06:17.339Z,-1.77
2019-01-26T01:08:51.002Z,-1.72
2019-01-26T01:11:24.445Z,-1.81
2019-01-26T01:13:58.018Z,-1.91
2019-01-26T01:16:44.149Z,-1.85
2019-01-26T01:19:29.882Z,-1.81
2019-01-26T01:22:15.474Z,-1.73
2019-01-26T01:24:48.886Z,-1.72
2019-01-26T01:27:21.007Z,-1.83
2019-01-26T01:29:55.014Z,-1.77
2019-01-26T01:32:28.401Z,-1.73
2019-01-26T01:35:01.642Z,-1.75
2019-01-26T01:37:35.586Z,-1.58
2019-01-26T01:40:09.800Z,-1.66
2019-01-26T01:42:43.817Z,-1.63
2019-01-26T01:45:18.709Z,-1.53
2019-01-26T01:47:52.313Z,-1.64
2019-01-26T01:50:25.839Z,-1.59
2019-01-26T01:52:59.239Z,-1.59
2019-01-26T01:55:33.212Z,-1.73
2019-01-26T01:58:07.378Z,-1.63
2019-01-26T02:00:40.201Z,-1.64
2019-01-26T02:03:13.385Z,-1.69
2019-01-26T02:05:46.773Z,-1.73
2019-01-26T02:08:20.102Z,-1.71
2019-01-26T02:10:53.638Z,-1.70
2019-01-26T02:13:27.487Z,-1.75
2019-01-26T02:16:01.518Z,-1.85
2019-01-26T02:18:47.429Z,-1.68
2019-01-26T02:21:32.215Z,-1.84
2019-01-26T02:24:20.527Z,-1.81
2019-01-26T02:27:06.225Z,-1.80
2019-01-26T02:29:47.556Z,-1.86
2019-01-26T02:32:21.152Z,-1.97
2019-01-26T02:34:54.585Z,-1.75
2019-01-26T02:37:28.586Z,-1.86
2019-01-26T02:40:02.156Z,-1.75
2019-01-26T02:42:36.967Z,-1.60
2019-01-26T02:45:13.056Z,-1.68
2019-01-26T02:47:48.376Z,-1.57
2019-01-26T02:50:22.509Z,-1.66
2019-01-26T02:52:56.017Z,-1.66
2019-01-26T02:55:28.864Z,-1.70
2019-01-26T02:58:02.315Z,-1.71
2019-01-26T03:00:35.918Z,-1.79
2019-01-26T03:03:13.233Z,-1.81
2019-01-26T03:05:47.011Z,-1.92
2019-01-26T03:08:21.206Z,-1.89
2019-01-26T03:10:54.292Z,-1.89
2019-01-26T03:13:27.028Z,-1.85
2019-01-26T03:16:00.370Z,-1.85
2019-01-26T03:18:46.043Z,-1.88
2019-01-26T03:21:29.352Z,-1.85
2019-01-26T03:24:03.126Z,-1.76
2019-01-26T03:26:40.594Z,-1.70
2019-01-26T03:29:14.834Z,-1.72
2019-01-26T03:31:49.187Z,-1.72
2019-01-26T03:34:22.820Z,-1.69
2019-01-26T03:36:55.948Z,-1.87
2019-01-26T03:39:29.206Z,-1.80
2019-01-26T03:42:02.240Z,-1.86
2019-01-26T03:44:34.344Z,-1.88
2019-01-26T03:47:13.662Z,-1.88
2019-01-26T03:49:42.844Z,-1.95
2019-01-26T03:52:16.514Z,-1.99
2019-01-26T03:54:49.810Z,-2.01
2019-01-26T03:57:23.068Z,-2.07
2019-01-26T03:59:57.038Z,-2.04
2019-01-26T04:02:30.264Z,-2.11
2019-01-26T04:05:04.275Z,-2.09
2019-01-26T04:07:38.112Z,-2.02
2019-01-26T04:10:11.915Z,-2.17
2019-01-26T04:12:45.242Z,-2.15
2019-01-26T04:15:19.250Z,-2.07
2019-01-26T04:18:03.470Z,-2.10
2019-01-26T04:20:46.019Z,-2.13
2019-01-26T04:23:19.290Z,-2.11
2019-01-26T04:25:52.547Z,-2.15
2019-01-26T04:28:25.696Z,-2.11
2019-01-26T04:30:59.380Z,-2.15
2019-01-26T04:33:31.914Z,-2.26
2019-01-26T04:36:06.473Z,-2.30
2019-01-26T04:38:39.637Z,-2.29
2019-01-26T04:41:13.873Z,-2.30
2019-01-26T04:43:47.774Z,-2.35
2019-01-26T04:46:21.337Z,-2.40
2019-01-26T04:48:55.153Z,-2.39
2019-01-26T04:51:29.003Z,-2.46
2019-01-26T04:54:02.529Z,-2.42
2019-01-26T04:56:35.859Z,-2.45
2019-01-26T04:59:09.351Z,-2.47
2019-01-26T05:01:43.015Z,-2.46
2019-01-26T05:04:16.275Z,-2.42
2019-01-26T05:06:49.324Z,-2.44
2019-01-26T05:09:21.493Z,-2.44
2019-01-26T05:11:54.675Z,-2.53
2019-01-26T05:14:28.043Z,-2.65
2019-01-26T05:17:05.195Z,-2.54
2019-01-26T05:19:51.203Z,-2.51
2019-01-26T05:22:36.966Z,-2.46
2019-01-26T05:25:17.640Z,-2.40
2019-01-26T05:27:53.422Z,-2.52
2019-01-26T05:30:36.259Z,-2.53
2019-01-26T05:33:09.834Z,-2.52
2019-01-26T05:35:52.390Z,-2.56
2019-01-26T05:38:27.998Z,-2.48
2019-01-26T05:41:05.669Z,-2.50
2019-01-26T05:43:39.141Z,-2.51
2019-01-26T05:46:12.674Z,-2.64
2019-01-26T05:48:46.424Z,-2.62
2019-01-26T05:51:20.100Z,-2.62
2019-01-26T05:53:54.413Z,-2.66
2019-01-26T05:56:27.472Z,-2.64
2019-01-26T05:59:00.577Z,-2.63
2019-01-26T06:01:34.011Z,-2.70
2019-01-26T06:04:07.467Z,-2.67
2019-01-26T06:06:40.485Z,-2.72
2019-01-26T06:09:13.321Z,-2.69
2019-01-26T06:11:46.589Z,-2.76
2019-01-26T06:14:19.539Z,-2.74
2019-01-26T06:16:51.655Z,-2.73
2019-01-26T06:19:35.055Z,-2.69
2019-01-26T06:22:20.853Z,-2.69
2019-01-26T06:25:05.066Z,-2.64
2019-01-26T06:27:50.724Z,-2.71
2019-01-26T06:30:34.919Z,-2.59
2019-01-26T06:33:13.969Z,-2.74
2019-01-26T06:35:48.347Z,-2.73
2019-01-26T06:38:22.083Z,-2.66
2019-01-26T06:40:55.583Z,-2.71
2019-01-26T06:43:29.295Z,-2.71
2019-01-26T06:46:04.689Z,-2.53
2019-01-26T06:48:38.635Z,-2.60
2019-01-26T06:51:12.157Z,-2.57
2019-01-26T06:53:46.271Z,-2.68
2019-01-26T06:56:20.475Z,-2.60
2019-01-26T06:58:54.772Z,-2.62
2019-01-26T07:01:29.223Z,-2.65
2019-01-26T07:04:03.356Z,-2.68
2019-01-26T07:06:46.527Z,-2.69
2019-01-26T07:09:19.360Z,-2.75
2019-01-26T07:11:53.461Z,-2.72
2019-01-26T07:14:27.138Z,-2.78
2019-01-26T07:17:00.127Z,-2.79
2019-01-26T07:19:35.909Z,-2.83
2019-01-26T07:22:09.844Z,-2.76
2019-01-26T07:24:43.745Z,-2.88
2019-01-26T07:27:18.012Z,-2.87
2019-01-26T07:29:51.637Z,-2.67
2019-01-26T07:32:25.237Z,-2.75
2019-01-26T07:34:58.357Z,-2.62
2019-01-26T07:37:32.459Z,-2.68
2019-01-26T07:40:06.324Z,-2.59
2019-01-26T07:42:40.432Z,-2.64
2019-01-26T07:45:14.125Z,-2.67
2019-01-26T07:47:47.577Z,-2.61
2019-01-26T07:50:21.317Z,-2.69
2019-01-26T07:52:54.955Z,-2.75
2019-01-26T07:55:28.028Z,-2.70
2019-01-26T07:58:00.528Z,-2.66
2019-01-26T08:00:33.680Z,-2.67
2019-01-26T08:03:07.144Z,-2.67
2019-01-26T08:05:40.606Z,-2.71
2019-01-26T08:08:14.200Z,-2.74
2019-01-26T08:10:47.582Z,-2.56
2019-01-26T08:13:21.072Z,-2.59
2019-01-26T08:15:54.275Z,-2.64
2019-01-26T08:18:31.339Z,-2.38
2019-01-26T08:21:04.793Z,-2.32
2019-01-26T08:23:38.865Z,-2.37
2019-01-26T08:26:12.298Z,-2.22
2019-01-26T08:28:45.710Z,-2.14
2019-01-26T08:31:19.651Z,-2.06
2019-01-26T08:33:52.876Z,-2.23
2019-01-26T08:36:26.875Z,-2.22
2019-01-26T08:39:01.941Z,-2.43
2019-01-26T08:41:37.929Z,-2.40
2019-01-26T08:44:12.607Z,-2.31
2019-01-26T08:46:46.306Z,-2.27
2019-01-26T08:49:19.762Z,-2.31
2019-01-26T08:51:52.696Z,-2.24
2019-01-26T08:54:26.064Z,-2.04
2019-01-26T08:56:59.953Z,-1.97
2019-01-26T08:59:33.280Z,-1.92
2019-01-26T09:02:26.739Z,-2.07
2019-01-26T09:05:03.235Z,-2.02
2019-01-26T09:07:39.074Z,-2.18
2019-01-26T09:10:13.603Z,-2.12
2019-01-26T09:12:47.392Z,-2.11
2019-01-26T09:15:21.505Z,-2.14
2019-01-26T09:17:55.594Z,-2.14
2019-01-26T09:20:28.235Z,-2.06
2019-01-26T09:23:02.099Z,-1.91
2019-01-26T09:25:38.736Z,-2.00
2019-01-26T09:28:13.019Z,-1.70
2019-01-26T09:30:46.298Z,-1.62
2019-01-26T09:33:20.308Z,-1.63
2019-01-26T09:35:55.022Z,-1.62
2019-01-26T09:38:28.721Z,-1.31
2019-01-26T09:41:02.493Z,-1.41
2019-01-26T09:43:36.152Z,-1.38
2019-01-26T09:46:09.651Z,-1.60
2019-01-26T09:48:46.277Z,-1.60
2019-01-26T09:51:20.603Z,-1.58
2019-01-26T09:53:55.885Z,-1.31
2019-01-26T09:56:29.512Z,-1.53
2019-01-26T09:59:04.731Z,-1.39
2019-01-26T10:01:38.167Z,-1.38
2019-01-26T10:04:12.587Z,-1.25
2019-01-26T10:06:46.574Z,-1.21
2019-01-26T10:09:20.505Z,-1.48
2019-01-26T10:11:54.271Z,-1.41
2019-01-26T10:14:28.722Z,-1.56
2019-01-26T10:17:02.370Z,-1.53
2019-01-26T10:19:39.507Z,-1.51
2019-01-26T10:22:13.350Z,-1.49
2019-01-26T10:24:47.448Z,-1.46
2019-01-26T10:27:21.085Z,-1.25
2019-01-26T10:29:54.121Z,-1.22
2019-01-26T10:32:26.474Z,-1.24
2019-01-26T10:35:04.306Z,-1.40
2019-01-26T10:37:39.656Z,-1.35
2019-01-26T10:40:33.437Z,-1.15
2019-01-26T10:43:08.009Z,-1.00
2019-01-26T10:45:43.355Z,-0.95
2019-01-26T10:48:17.145Z,-0.74
2019-01-26T10:50:51.094Z,-0.94
2019-01-26T10:53:24.598Z,-0.84
2019-01-26T10:55:59.589Z,-0.77
2019-01-26T10:58:35.182Z,-0.79
2019-01-26T11:01:10.009Z,-0.78
2019-01-26T11:03:44.644Z,-0.81
2019-01-26T11:06:18.372Z,-0.80
2019-01-26T11:08:51.461Z,-0.72
2019-01-26T11:11:24.016Z,-0.60
2019-01-26T11:14:01.712Z,-0.60
2019-01-26T11:16:35.399Z,-0.39
2019-01-26T11:19:09.528Z,-0.16
2019-01-26T11:21:49.562Z,-0.40
2019-01-26T11:24:23.953Z,-0.45
2019-01-26T11:26:57.430Z,-0.59
2019-01-26T11:29:31.629Z,-0.58
2019-01-26T11:32:05.499Z,-0.74
2019-01-26T11:34:39.464Z,-0.88
2019-01-26T11:37:13.750Z,-0.95
2019-01-26T11:39:54.880Z,-0.88
2019-01-26T11:42:28.176Z,-0.93
2019-01-26T11:45:20.947Z,-1.09
2019-01-26T11:47:54.861Z,-1.02
2019-01-26T11:50:35.287Z,-0.84
2019-01-26T11:53:09.485Z,-0.68
2019-01-26T11:55:57.027Z,-0.63
2019-01-26T11:58:30.568Z,-0.72
2019-01-26T12:01:32.894Z,-0.95
2019-01-26T12:04:25.013Z,-0.83
2019-01-26T12:07:12.021Z,-0.86
2019-01-26T12:09:46.042Z,-0.90
2019-01-26T12:12:20.483Z,-0.72
2019-01-26T12:14:53.851Z,-0.70
2019-01-26T12:17:29.178Z,-0.99
2019-01-26T12:20:10.043Z,-0.88
2019-01-26T12:22:43.292Z,-0.92
2019-01-26T12:25:18.137Z,-0.88
2019-01-26T12:27:54.120Z,-0.83
2019-01-26T12:30:28.143Z,-0.67
2019-01-26T12:33:02.734Z,-0.85
2019-01-26T12:35:36.819Z,-0.83
2019-01-26T12:38:12.483Z,-0.82
2019-01-26T12:40:47.810Z,-0.77
2019-01-26T12:43:21.692Z,-0.86
2019-01-26T12:45:55.222Z,-1.05
2019-01-26T12:48:29.122Z,-0.99
2019-01-26T12:51:03.104Z,-1.00
2019-01-26T12:53:36.675Z,-1.22
2019-01-26T12:56:14.997Z,-1.10
2019-01-26T12:58:49.278Z,-1.19
2019-01-26T13:01:23.309Z,-1.22
2019-01-26T13:03:57.363Z,-1.44
2019-01-26T13:06:32.033Z,-1.46
2019-01-26T13:09:07.517Z,-1.54
2019-01-26T13:11:44.002Z,-1.52
2019-01-26T13:14:17.244Z,-1.58
2019-01-26T13:17:19.738Z,-1.68
2019-01-26T13:19:54.157Z,-1.62
2019-01-26T13:22:40.585Z,-1.64
2019-01-26T13:25:26.675Z,-1.51
2019-01-26T13:28:09.999Z,-1.72
2019-01-26T13:30:43.430Z,-1.75
2019-01-26T13:33:16.524Z,-1.72
2019-01-26T13:35:49.425Z,-1.70
2019-01-26T13:38:23.961Z,-1.94
2019-01-26T13:40:58.161Z,-1.88
2019-01-26T13:43:31.961Z,-2.00
2019-01-26T13:46:05.659Z,-1.99
2019-01-26T13:48:40.911Z,-2.00
2019-01-26T13:51:15.269Z,-1.97
2019-01-26T13:53:49.163Z,-2.06
2019-01-26T13:56:23.229Z,-2.18
2019-01-26T13:58:57.404Z,-2.28
2019-01-26T14:01:31.827Z,-2.09
2019-01-26T14:04:08.248Z,-2.06
2019-01-26T14:06:41.478Z,-2.21
2019-01-26T14:09:15.634Z,-2.09
2019-01-26T14:11:50.032Z,-2.24
2019-01-26T14:14:23.695Z,-2.16
2019-01-26T14:16:57.697Z,-2.33
2019-01-26T14:19:31.336Z,-2.29
2019-01-26T14:22:16.909Z,-2.35
2019-01-26T14:25:00.301Z,-2.41
2019-01-26T14:27:33.511Z,-2.56
2019-01-26T14:30:26.712Z,-2.56
2019-01-26T14:33:00.608Z,-2.54
2019-01-26T14:35:47.059Z,-2.54
2019-01-26T14:38:32.749Z,-2.51
2019-01-26T14:41:15.729Z,-2.42
2019-01-26T14:43:52.547Z,-2.57
2019-01-26T14:46:34.987Z,-2.59
2019-01-26T14:49:08.437Z,-2.63
2019-01-26T14:51:41.716Z,-2.78
2019-01-26T14:54:15.237Z,-2.86
2019-01-26T14:56:49.129Z,-2.78
2019-01-26T14:59:23.160Z,-2.81
2019-01-26T15:01:57.435Z,-2.78
2019-01-26T15:04:31.492Z,-2.76
2019-01-26T15:07:07.505Z,-2.91
2019-01-26T15:09:40.627Z,-2.97
2019-01-26T15:12:16.191Z,-3.08
2019-01-26T15:14:50.131Z,-3.09
2019-01-26T15:17:26.936Z,-3.08
2019-01-26T15:20:05.658Z,-3.24
2019-01-26T15:22:47.651Z,-3.19
2019-01-26T15:25:34.165Z,-3.24
2019-01-26T15:28:20.954Z,-3.26
2019-01-26T15:30:59.618Z,-3.29
2019-01-26T15:33:33.179Z,-3.20
2019-01-26T15:36:09.161Z,-3.23
2019-01-26T15:38:42.873Z,-3.20
2019-01-26T15:41:16.163Z,-3.07
2019-01-26T15:43:49.337Z,-3.05
2019-01-26T15:46:27.183Z,-3.13
2019-01-26T15:49:01.423Z,-3.18
2019-01-26T15:51:35.749Z,-3.09
2019-01-26T15:54:09.626Z,-3.14
2019-01-26T15:56:43.145Z,-3.29
2019-01-26T15:59:16.591Z,-3.23
2019-01-26T16:01:50.491Z,-3.16
2019-01-26T16:04:24.053Z,-3.12
2019-01-26T16:06:57.881Z,-3.21
2019-01-26T16:09:32.165Z,-3.17
2019-01-26T16:12:07.477Z,-3.13
2019-01-26T16:14:42.215Z,-3.20
2019-01-26T16:17:15.627Z,-3.32
2019-01-26T16:19:49.483Z,-3.17
2019-01-26T16:22:34.845Z,-3.10
2019-01-26T16:25:15.015Z,-3.19
2019-01-26T16:27:48.375Z,-3.18
2019-01-26T16:30:26.886Z,-3.20
2019-01-26T16:33:00.395Z,-3.18
2019-01-26T16:35:35.320Z,-3.27
2019-01-26T16:38:09.899Z,-3.28
2019-01-26T16:40:44.850Z,-3.22
2019-01-26T16:43:19.297Z,-3.12
2019-01-26T16:45:53.301Z,-3.16
2019-01-26T16:48:27.439Z,-3.11
2019-01-26T16:51:01.707Z,-3.23
2019-01-26T16:53:35.612Z,-3.18
2019-01-26T16:56:08.803Z,-3.19
2019-01-26T16:58:43.501Z,-3.24
2019-01-26T17:01:17.016Z,-3.24
2019-01-26T17:03:52.365Z,-3.23
2019-01-26T17:06:25.983Z,-3.33
2019-01-26T17:09:00.391Z,-3.20
2019-01-26T17:11:35.884Z,-3.24
2019-01-26T17:14:10.937Z,-3.28
2019-01-26T17:16:46.237Z,-3.35
2019-01-26T17:19:20.585Z,-3.30
2019-01-26T17:21:54.799Z,-3.36
2019-01-26T17:24:30.366Z,-3.36
2019-01-26T17:27:05.216Z,-3.33
2019-01-26T17:29:39.126Z,-3.40
2019-01-26T17:32:13.188Z,-3.44
2019-01-26T17:34:46.948Z,-3.27
2019-01-26T17:37:20.762Z,-3.34
2019-01-26T17:39:55.404Z,-3.32
2019-01-26T17:42:29.804Z,-3.35
2019-01-26T17:45:04.337Z,-3.28
2019-01-26T17:47:37.654Z,-3.18
2019-01-26T17:50:14.720Z,-3.14
2019-01-26T17:52:48.429Z,-3.23
2019-01-26T17:55:24.492Z,-3.25
2019-01-26T17:57:59.273Z,-3.28
2019-01-26T18:00:45.916Z,-3.21
2019-01-26T18:03:19.678Z,-3.31
2019-01-26T18:05:53.380Z,-3.33
2019-01-26T18:08:30.226Z,-3.19
2019-01-26T18:11:05.754Z,-3.13
2019-01-26T18:13:40.520Z,-3.06
2019-01-26T18:16:14.997Z,-3.05
2019-01-26T18:18:49.496Z,-3.10
2019-01-26T18:21:25.230Z,-3.01
2019-01-26T18:24:13.943Z,-3.09
2019-01-26T18:26:55.959Z,-3.04
2019-01-26T18:29:29.393Z,-2.87
2019-01-26T18:32:02.781Z,-2.94
2019-01-26T18:34:36.563Z,-2.87
2019-01-26T18:37:10.953Z,-2.83
2019-01-26T18:39:45.192Z,-2.98
2019-01-26T18:42:18.785Z,-2.84
2019-01-26T18:44:52.569Z,-2.81
2019-01-26T18:48:18.251Z,-2.92
2019-01-26T18:50:56.338Z,-2.82
2019-01-26T18:53:28.267Z,-2.90
2019-01-26T18:56:04.537Z,-2.85
2019-01-26T18:58:39.581Z,-2.87
2019-01-26T19:01:12.613Z,-2.76
2019-01-26T19:04:35.949Z,-2.71
2019-01-26T19:07:10.241Z,-2.71
2019-01-26T19:09:44.903Z,-2.70
2019-01-26T19:12:20.629Z,-2.79
2019-01-26T19:14:54.508Z,-2.77
2019-01-26T19:17:29.276Z,-2.88
2019-01-26T19:20:04.299Z,-2.76
2019-01-26T19:22:40.575Z,-2.83
2019-01-26T19:25:26.755Z,-2.89
2019-01-26T19:28:13.063Z,-2.95
2019-01-26T19:30:57.972Z,-3.07
2019-01-26T19:33:39.871Z,-3.11
2019-01-26T19:36:14.767Z,-3.19
2019-01-26T19:38:47.956Z,-3.23
2019-01-26T19:41:22.698Z,-3.21
2019-01-26T19:43:56.794Z,-3.27
2019-01-26T19:46:31.076Z,-3.44
2019-01-26T19:49:04.617Z,-3.39
2019-01-26T19:51:39.086Z,-3.41
2019-01-26T19:54:14.390Z,-3.30
2019-01-26T19:56:50.772Z,-3.28
2019-01-26T19:59:25.741Z,-3.35
2019-01-26T20:02:00.681Z,-3.42
2019-01-26T20:04:34.499Z,-3.45
2019-01-26T20:07:09.194Z,-3.47
2019-01-26T20:09:42.570Z,-3.37
2019-01-26T20:12:17.246Z,-3.44
2019-01-26T20:14:51.168Z,-3.43
2019-01-26T20:17:27.815Z,-3.43
2019-01-26T20:20:01.824Z,-3.44
2019-01-26T20:22:35.575Z,-3.39
2019-01-26T20:25:22.005Z,-3.41
2019-01-26T20:28:07.457Z,-3.42
2019-01-26T20:30:50.199Z,-3.36
2019-01-26T20:33:24.093Z,-3.43
2019-01-26T20:35:57.778Z,-3.34
2019-01-26T20:38:31.721Z,-3.39
2019-01-26T20:41:06.227Z,-3.21
2019-01-26T20:43:40.262Z,-3.32
2019-01-26T20:46:13.650Z,-3.25
2019-01-26T20:48:48.381Z,-3.29
2019-01-26T20:51:25.033Z,-3.24
2019-01-26T20:53:57.439Z,-3.27
2019-01-26T20:56:31.122Z,-3.29
2019-01-26T20:59:04.495Z,-3.35
2019-01-26T21:01:38.185Z,-3.26
2019-01-26T21:04:12.205Z,-3.26
2019-01-26T21:06:47.049Z,-3.28
2019-01-26T21:09:21.949Z,-3.29
2019-01-26T21:11:55.284Z,-3.26
2019-01-26T21:14:29.207Z,-3.32
2019-01-26T21:17:02.767Z,-3.27
2019-01-26T21:19:37.228Z,-3.33
2019-01-26T21:22:11.407Z,-3.35
2019-01-26T21:24:57.534Z,-3.36
2019-01-26T21:27:35.367Z,-3.40
2019-01-26T21:30:13.067Z,-3.39
2019-01-26T21:32:47.904Z,-3.38
2019-01-26T21:35:21.564Z,-3.36
2019-01-26T21:37:56.071Z,-3.36
2019-01-26T21:40:34.371Z,-3.37
2019-01-26T21:43:08.273Z,-3.34
2019-01-26T21:45:42.639Z,-3.32
2019-01-26T21:48:16.793Z,-3.33
2019-01-26T21:50:50.835Z,-3.34
2019-01-26T21:53:23.939Z,-3.19
2019-01-26T21:55:58.800Z,-3.24
2019-01-26T21:58:32.962Z,-3.21
2019-01-26T22:01:06.688Z,-3.24
2019-01-26T22:03:42.955Z,-3.11
2019-01-26T22:06:16.989Z,-3.19
2019-01-26T22:08:50.425Z,-3.22
2019-01-26T22:11:24.295Z,-3.15
2019-01-26T22:13:57.609Z,-3.10
2019-01-26T22:16:32.127Z,-3.11
2019-01-26T22:19:06.463Z,-3.07
2019-01-26T22:21:45.867Z,-3.11
2019-01-26T22:24:16.260Z,-3.13
2019-01-26T22:26:50.551Z,-3.02
2019-01-26T22:29:31.080Z,-3.00
2019-01-26T22:32:00.060Z,-3.07
2019-01-26T22:34:34.034Z,-3.05
2019-01-26T22:37:07.816Z,-2.96
2019-01-26T22:39:42.163Z,-2.94
2019-01-26T22:42:16.100Z,-3.04
2019-01-26T22:44:49.615Z,-3.06
2019-01-26T22:47:23.801Z,-3.01
2019-01-26T22:49:59.187Z,-3.01
2019-01-26T22:52:33.203Z,-3.01
2019-01-26T22:55:06.955Z,-3.03
2019-01-26T22:57:40.353Z,-2.94
2019-01-26T23:00:51.809Z,-2.98
2019-01-26T23:03:49.254Z,-2.90
2019-01-26T23:07:12.433Z,-2.87
2019-01-26T23:10:22.431Z,-2.87
2019-01-26T23:13:21.569Z,-2.96
2019-01-26T23:16:42.901Z,-2.86
2019-01-26T23:19:25.559Z,-2.90
2019-01-26T23:22:37.239Z,-2.96
2019-01-26T23:25:22.977Z,-2.91
2019-01-26T23:28:45.979Z,-2.87
2019-01-26T23:31:20.511Z,-2.86
2019-01-26T23:33:54.717Z,-2.93
2019-01-26T23:36:28.233Z,-2.89
2019-01-26T23:39:02.516Z,-2.94
2019-01-26T23:41:37.451Z,-2.77
2019-01-26T23:44:10.765Z,-2.66
2019-01-26T23:46:43.891Z,-2.67
2019-01-26T23:49:16.432Z,-2.65
2019-01-26T23:51:50.085Z,-2.73
2019-01-26T23:54:23.312Z,-2.76
2019-01-26T23:56:56.250Z,-2.70
2019-01-26T23:59:29.718Z,-2.77
